SÍGUENOS

APP INUMET

Disponible en Google Play

Productos aeronáuticos

  • SIGMET
  • METAR / SPECI
  • TAF
  • AIREP
  • Aviso de aeródromo
  • Pronárea
  • Carta superficie
Fecha : 23/08/2017
FTUY 01 SUMU 23 23 15
SUMU TAF 232315Z 2400/2500 14006KT 9999 OVC030 TX22/2418Z TN15/2410Z PROB30 TEMPO 2406/2414 04015KT 8000 RA BKN015 OVC070 PROB40 TEMPO 2415/2422 36015G25KT 5000 TSRA BKN020 FEW040CB OVC070=
SULS TAF 232315Z 2400/2500 05005KT 9999 SCT030 BKN200 TX23/2418Z TN15/2410Z PROB30 TEMPO 2406/2412 04015KT 8000 RA BKN015 OVC070 PROB40 TEMPO 2413/2422 36015G25KT 5000 TSRA BKN020 FEW040CB OVC070=
SUAA TAF 232315Z 2400/2500 18008KT CAVOK TX23/2418Z TN16/2410Z PROB30 TEMPO 2406/2414 04015KT 8000 RA BKN015 OVC070 PROB40 TEMPO 2415/2422 36015G25KT 5000 TSRA BKN020 FEW040CB OVC070=
SUCA TAF 232315Z 2400/2500 12008KT CAVOK TX24/2418Z TN16/2410Z PROB40 TEMPO 2406/2415 04015G25KT 5000 TSRABR BKN015 FEW040CB OVC070 BECMG 2416/2420 36015KT 8000 RA BKN020 OVC080=
SUDU TAF 232315Z 2400/2500 09006KT CAVOK TX23/2418Z TN17/2410Z PROB40 TEMPO 2406/2415 04015G25KT 5000 TSRA BKN015 FEW040CB OVC070 BECMG 2416/2420 36015KT 8000 RA BKN020 OVC080=
SUSO TAF 232315Z 2400/2500 09008KT CAVOK TX28/2418Z TN15/2410Z PROB40 TEMPO 2403/2412 04015G25KT 4000 TSRABR BKN015 FEW040CB OVC070 BECMG 2413/2417 36015KT 8000 RA BKN020 OVC080=
SURV TAF 232315Z 2400/2500 09008KT CAVOK TX27/2418Z TN17/2410Z PROB40 TEMPO 2406/2412 04015KT 7000 SHRA BKN020 OVC070 BECMG 2413/2417 36015KT 9999 BKN025 BKN080=

Predictor : Alejandro Curiel


Mensajes TAF vigentes - Internacionales


Argentina
TAF SACO 232300Z 2400/2424 27005KT 8000 FU NSC TX27/2418Z TN05/2410Z BECMG 2410/2412 36010KT CAVOK
TAF SABE 232300Z 2400/2424 11010KT 9999 FEW025 SCT100 TX20/2418Z TN14/2410Z BECMG 2404/2406 18005KT 5000 BR BKN015 BECMG 2412/2414 09010KT 9999 BKN010 BECMG 2416/2418 09005KT 7000 RADZ BKN015 OVC045
TAF SAAR 232300Z 2400/2424 07005KT 9999 SCT020 BKN100 TX26/2418Z TN14/2410Z BECMG 2406/2408 16005KT 0800 BCFG NSC BECMG 2412/2414 11005KT 9999 SCT023 SCT100
TAF SAEZ 232300Z 2400/2424 VRB03KT CAVOK TX23/2418Z TN12/2409Z BECMG 2405/2407 5000 BR SCT010 PROB30 TEMPO 2408/2413 1500 MIFG DZ BECMG 2412/2415 05005KT 9999 SCT035
TAF SAME 232300Z 2400/2424 05005KT CAVOK TN02/2410Z TX22/2420Z PROB30 TEMPO 2411/2414 16005KT 6000 HZFU NSC
Bolivia
TAF SLLP 232200Z 2400/2424 02006KT 9999 NSC TX18/2420Z TNM03/2410Z BECMG 2412/2414 25007KT TEMPO 2417/2421 32012KT FEW020
Brasil
TAF SBFI 232230Z 2400/2424 09008KT CAVOK TN18/2409Z TX31/2418Z RMK PE R
TAF SBPA 232230Z 2400/2424 11008KT CAVOK TN16/2409Z TX30/2418Z PROB30 2408/2411 5000 BR NSC RMK PER
TAF SBFL 232230Z 2400/2424 36008KT 9999 SCT010 BKN020 TN17/2409Z TX22 /2418Z BECMG 2410/2412 SCT030 RMK PER
TAF SBBR 232200Z 2400/2424 13008KT CAVOK TN15/2409Z TX28/2418Z FM241000 12012KT FM241700 17008KT 8000 NSC FM242100 10006KT CAVOK RMK PDA
TAF SBGR 232126Z 2400/2506 15010KT CAVOK TN12/2409Z TX25/2417Z PROB30 2400/2402 7000 BKN009 BECMG 2402/2404 08005KT SCT012 PROB30 2408/2411 BKN006 BECMG 2413/2415 CAVOK BECMG 2419/2421 14005KT 8000 SCT015 BECMG 2422/2424 11005KT 7000 NSC BECMG 2500/2502 06005KT CAVOK RMK PHN
TAF SBSP 232126Z 2400/2424 15010KT CAVOK TN13/2409Z TX23/2417Z PROB30 2400/2402 7000 BKN009 BECMG 2402/2404 08005KT FEW010 PROB30 2408/2411 BKN006 BECMG 2413/2415 CAVOK TEMPO 2418/2422 14005KT 8000 SCT010 RMK PHN
TAF SBRJ 232040Z 2400/2412 08005KT 9999 SCT020 BKN050TN19/2410Z TX21/2412Z BECMG 2407/2409 02005KT RMK PHI
Colombia
TAF SKBO 232300Z 2400/2424 15007KT 9999 SCT020 SCT200 BECMG 2401/2403 18010KT TEMPO 2402/2405 8000 DZ SCT017TCU TEMPO 2409/2413 8000 VCFG SCT015 TEMPO 2419/2423 25007KT SCT017TCU TX20/2418Z T07/2411Z
Chile
TAF AMD SCEL 240047Z 2401/2424 15004KT 8000 FEW025 BKN050 TX16/2418Z TN05/2410Z BECMG 2408/2410 VRB02KT 5000 BR BR TEMPO 2410/2414 0800 BCFG SCT001 SCT040 BECMG 2417/2419 21010KT 8000 NSC
TAF SCCI 232237Z 2400/2500 08007KT 9999 FEW040 TNM01/2410Z TX05/2418Z BECMG 2401/2403 09012KT 9000 -SHSN SCT030 BKN040 TEMPO 2403/2410 17020G30KT TEMPO 2404/2410 1000 +SHSN BKN010 OVC020 BECMG 2412/2414 27012KT 9999 NSW SCT030 BECMG 2416/2418 SCT025 TEMPO 2419/2421 280158G30KT 8000 -SHRA BKN020TCU BECMG 2422/2500 29025G35KT
Ecuador
SEQM 232240Z 2400/2424 04004KT 9999 FEW040 BECMG 2405/2406 00000KT FM241200 VRB03KT 9999 SCT033 FM241600 34014KT 9999 FEW040 TX24/2419Z TN07/2411Z
EEUU
KJFK 240221Z 2402/2506 34008KT P6SM FEW060 FM241200 01008KT P6SM FEW040 FM241800 24010KT P6SM FEW050 FM250200 32007KT P6SM FEW070
KLGA 240221Z 2402/2424 33007KT P6SM SKC FM241200 01008KT P6SM FEW040 FM241900 31010KT P6SM FEW050
KMIA 232335Z 2400/2424 11006KT P6SM BKN035 BKN070 BKN250 FM240600 VRB03KT P6SM VCSH SCT030 BKN050 FM241500 14006KT P6SM VCTS SCT030CB BKN050 FM242000 13015KT P6SM VCTS SCT025CB BKN050
KDCA 232320Z 2400/2424 02008KT P6SM FEW090 FM240300 35008KT P6SM FEW090 FM241900 34008KT P6SM BKN050 FM242300 VRB03KT P6SM BKN050
KIAD 232320Z 2400/2506 36004KT P6SM FEW090 FM241500 34009KT P6SM SCT050 FM241900 34009KT P6SM BKN050 FM250000 VRB04KT P6SM BKN050
España
TAF LEBL 232300Z 2400/2424 28005KT 9999 FEW025 TX30/2412Z TN22/2405Z PROB30 TEMPO 2400/2406 FEW020CB SCT025 BECMG 2407/2409 18010KT BECMG 2418/2420 VRB04KT
TAF LEMD 232300Z 2400/2506 VRB05KT CAVOK TX36/2416Z TN19/2406Z PROB40 TEMPO 2400/2402 02010KT BECMG 2410/2412 22012KT TEMPO 2411/2418 23015G25KT TEMPO 2417/2419 27010KT BECMG 2418/2420 VRB05KT
Francia
TAF LFPO 232300Z 2400/2506 35005KT CAVOK
Inglaterra
TAF EGLL 232255Z 2400/2506 26008KT 9999 FEW040 BECMG 2500/2503 6000 PROB30 2503/2506 3000 BR
Panamá
TAF MPTO 240200Z 2400/2506 18006KT 9999 SCT017 BKN100 PROB30 TEMPO 2402/2405 8000 RA SCT015 SCT080 BECMG 2405/2410 00000KT 9999 NSW SCT016
Paraguay
TAF SGAS 232300Z 2400/2500 07010G20KT CAVOK TX35/2419Z TN23/2410Z BECMG 2414/2418 05015G25KT CAVOK
Venezuela
TAF SVMI 232200Z 2400/2500 09010KT 9999 SCT016 TX32/18Z TN25/09Z BECMG 2400/2404 07009KT

* Datos extraidos del Text DataServer de la NOAA (NOAA TEXT DATA SERVER)

Instituto Uruguayo de Meteorología

Dr. Javier Barrios Amorín 1488 - CP 11200
Mesa Central (598) 1895

Montevideo - Uruguay